Cheboksary, Russia
Current Conditions -  °F | °C
As of 6:00 AM on Saturday 01 Nov 2014 (Local Time) from UWKS Reporting Station
Scattered Clouds Scattered Clouds  
Wind Chill: 25°   Ceiling: Unl
Heat Index: 30°   Visibility: 5mi
Dew Point: 28°   Wind: 4mph
Humidity: 93%   Direction: 310°NW
Pressure: 29.91"   Gusts: NA
Location:  56.13°N, 47.25°E
Report Text: UWKS 010300Z 31002MPS 8000 SCT066 M01/M02 Q1013 NOSIG RMKQFE746 24190060
Loading
Personal Weather Stations






























Interactive Weather Map
Tropical Storm Tracking
New forecast layout! Learn more

10-Day Weather Forecast

Advertisements
Track Severe Weather on mobile